createdAt,value
2022-09-15T00:01:36.344Z,6.07
2022-09-15T00:04:05.659Z,7.40
2022-09-15T00:06:36.089Z,7.13
2022-09-15T00:09:05.908Z,10.88
2022-09-15T00:11:37.651Z,8.10
2022-09-15T00:14:09.151Z,7.63
2022-09-15T00:16:38.247Z,7.28
2022-09-15T00:19:07.400Z,7.13
2022-09-15T00:21:41.285Z,7.68
2022-09-15T00:24:10.925Z,11.45
2022-09-15T00:26:39.418Z,11.15
2022-09-15T00:29:07.554Z,9.82
2022-09-15T00:31:35.641Z,11.15
2022-09-15T00:34:04.091Z,10.10
2022-09-15T00:36:32.959Z,11.65
2022-09-15T00:39:02.510Z,13.77
2022-09-15T00:41:31.506Z,11.95
2022-09-15T00:44:02.799Z,14.43
2022-09-15T00:46:34.768Z,19.20
2022-09-15T00:49:09.643Z,13.43
2022-09-15T00:51:44.257Z,16.17
2022-09-15T00:54:19.837Z,12.30
2022-09-15T00:56:54.688Z,16.83
2022-09-15T00:59:29.683Z,10.07
2022-09-15T01:02:12.051Z,9.93
2022-09-15T01:04:40.419Z,13.23
2022-09-15T01:07:15.468Z,16.52
2022-09-15T01:09:53.076Z,14.20
2022-09-15T01:12:23.283Z,14.80
2022-09-15T01:14:51.643Z,13.60
2022-09-15T01:17:34.408Z,11.10
2022-09-15T01:21:01.583Z,16.77
2022-09-15T01:24:09.084Z,17.27
2022-09-15T01:27:30.455Z,11.57
2022-09-15T01:30:12.076Z,12.43
2022-09-15T01:33:07.542Z,11.65
2022-09-15T01:36:04.667Z,10.00
2022-09-15T01:38:47.148Z,15.07
2022-09-15T01:41:19.807Z,16.10
2022-09-15T01:43:57.067Z,11.23
2022-09-15T01:46:32.532Z,14.95
2022-09-15T01:49:04.643Z,14.07
2022-09-15T01:51:35.648Z,14.10
2022-09-15T01:54:07.556Z,9.68
2022-09-15T01:56:37.639Z,12.40
2022-09-15T01:59:06.271Z,14.77
2022-09-15T02:01:44.809Z,13.65
2022-09-15T02:04:19.067Z,13.23
2022-09-15T02:06:56.653Z,14.68
2022-09-15T02:09:30.564Z,17.08
2022-09-15T02:12:09.575Z,13.82
2022-09-15T02:14:51.959Z,13.65
2022-09-15T02:17:23.465Z,18.85
2022-09-15T02:19:57.343Z,19.08
2022-09-15T02:22:30.364Z,19.88
2022-09-15T02:25:03.971Z,22.25
2022-09-15T02:27:38.971Z,21.58
2022-09-15T02:30:12.833Z,23.40
2022-09-15T02:32:51.003Z,15.98
2022-09-15T02:35:19.962Z,12.38
2022-09-15T02:37:49.608Z,8.77
2022-09-15T02:40:18.216Z,8.82
2022-09-15T02:42:55.815Z,15.98
2022-09-15T02:45:25.199Z,4.70
2022-09-15T02:47:55.062Z,4.38
2022-09-15T02:50:23.149Z,2.35
2022-09-15T02:52:51.201Z,2.08
2022-09-15T02:55:19.490Z,1.75
2022-09-15T02:57:47.498Z,3.15
2022-09-15T03:00:17.555Z,0.82
2022-09-15T03:02:49.915Z,0.70
2022-09-15T03:05:23.104Z,1.15
2022-09-15T03:07:52.229Z,2.72
2022-09-15T03:10:21.487Z,0.20
2022-09-15T03:12:52.097Z,0.40
2022-09-15T03:15:24.279Z,0.70
2022-09-15T03:17:53.339Z,1.15
2022-09-15T03:20:26.067Z,0.35
2022-09-15T03:22:54.366Z,0.40
2022-09-15T03:25:23.582Z,1.90
2022-09-15T03:27:51.743Z,0.38
2022-09-15T03:30:19.921Z,1.10
2022-09-15T03:32:48.788Z,1.35
2022-09-15T03:35:17.324Z,1.40
2022-09-15T03:37:47.074Z,1.55
2022-09-15T03:40:17.603Z,4.18
2022-09-15T03:42:48.130Z,2.03
2022-09-15T03:45:16.493Z,3.05
2022-09-15T03:47:44.790Z,6.13
2022-09-15T03:50:13.050Z,10.73
2022-09-15T03:52:41.278Z,6.32
2022-09-15T03:55:11.257Z,8.60
2022-09-15T03:57:39.385Z,9.23
2022-09-15T04:00:09.692Z,7.68
2022-09-15T04:02:37.952Z,10.77
2022-09-15T04:05:07.507Z,8.63
2022-09-15T04:07:35.624Z,5.95
2022-09-15T04:10:05.204Z,12.68
2022-09-15T04:12:35.251Z,4.13
2022-09-15T04:15:05.307Z,6.65
2022-09-15T04:17:33.870Z,7.40
2022-09-15T04:20:02.535Z,11.32
2022-09-15T04:22:32.111Z,8.73
2022-09-15T04:25:00.180Z,8.30
2022-09-15T04:27:28.948Z,7.72
2022-09-15T04:29:58.645Z,7.47
2022-09-15T04:32:27.062Z,5.53
2022-09-15T04:34:58.146Z,6.15
2022-09-15T04:37:26.388Z,6.65
2022-09-15T04:39:55.380Z,8.25
2022-09-15T04:42:25.015Z,9.80
2022-09-15T04:44:54.790Z,7.00
2022-09-15T04:47:24.660Z,13.07
2022-09-15T04:49:53.569Z,11.35
2022-09-15T04:52:22.053Z,13.25
2022-09-15T04:54:50.257Z,14.18
2022-09-15T04:57:18.579Z,12.85
2022-09-15T04:59:46.891Z,13.75
2022-09-15T05:02:15.309Z,15.52
2022-09-15T05:04:45.872Z,14.57
2022-09-15T05:07:14.486Z,18.67
2022-09-15T05:09:42.684Z,10.70
2022-09-15T05:12:11.690Z,10.95
2022-09-15T05:14:42.581Z,18.58
2022-09-15T05:17:11.550Z,14.68
2022-09-15T05:19:40.582Z,18.00
2022-09-15T05:22:21.785Z,14.50
2022-09-15T05:24:50.243Z,19.65
2022-09-15T05:27:18.817Z,17.15
2022-09-15T05:29:49.887Z,16.02
2022-09-15T05:32:18.403Z,15.05
2022-09-15T05:34:53.454Z,18.00
2022-09-15T05:37:23.261Z,15.98
2022-09-15T05:42:58.223Z,12.25
2022-09-15T05:45:28.228Z,23.10
2022-09-15T05:47:57.129Z,19.05
2022-09-15T05:50:27.077Z,17.25
2022-09-15T05:52:56.614Z,20.65
2022-09-15T05:55:24.927Z,17.30
2022-09-15T05:57:53.737Z,15.25
2022-09-15T06:00:22.079Z,12.63
2022-09-15T06:02:50.178Z,17.10
2022-09-15T06:05:18.553Z,13.23
2022-09-15T06:07:46.707Z,14.60
2022-09-15T06:10:16.555Z,14.20
2022-09-15T06:12:44.853Z,11.18
2022-09-15T06:15:13.378Z,14.10
2022-09-15T06:17:42.486Z,16.77
2022-09-15T06:20:11.669Z,11.65
2022-09-15T06:22:40.826Z,15.27
2022-09-15T06:25:10.599Z,17.40
2022-09-15T06:27:41.484Z,17.88
2022-09-15T06:30:11.865Z,12.15
2022-09-15T06:32:40.071Z,16.20
2022-09-15T06:35:08.785Z,13.75
2022-09-15T06:37:37.321Z,17.08
2022-09-15T06:40:07.673Z,16.30
2022-09-15T06:42:36.025Z,17.30
2022-09-15T06:45:06.653Z,11.68
2022-09-15T06:47:35.541Z,15.02
2022-09-15T06:50:05.076Z,15.68
2022-09-15T06:52:33.715Z,15.75
2022-09-15T06:55:02.472Z,18.25
2022-09-15T06:57:30.926Z,14.88
2022-09-15T06:59:59.241Z,11.02
2022-09-15T07:02:33.311Z,11.68
2022-09-15T07:05:02.951Z,12.00
2022-09-15T07:07:31.283Z,19.45
2022-09-15T07:10:00.129Z,17.15
2022-09-15T07:12:32.292Z,16.63
2022-09-15T07:15:00.569Z,18.85
2022-09-15T07:17:30.811Z,14.73
2022-09-15T07:20:01.419Z,14.60
2022-09-15T07:22:29.858Z,19.27
2022-09-15T07:24:58.221Z,16.75
2022-09-15T07:27:31.681Z,12.13
2022-09-15T07:30:00.160Z,19.23
2022-09-15T07:32:30.290Z,22.90
2022-09-15T07:34:58.683Z,23.55
2022-09-15T07:37:27.154Z,22.52
2022-09-15T07:39:55.637Z,23.30
2022-09-15T07:42:24.137Z,17.58
2022-09-15T07:44:52.388Z,14.02
2022-09-15T07:47:20.733Z,25.63
2022-09-15T07:49:50.969Z,15.43
2022-09-15T07:52:19.360Z,16.58
2022-09-15T07:54:49.715Z,16.70
2022-09-15T07:57:17.945Z,15.18
2022-09-15T07:59:46.143Z,13.05
2022-09-15T08:02:18.744Z,15.77
2022-09-15T08:04:47.550Z,19.40
2022-09-15T08:07:17.694Z,17.48
2022-09-15T08:09:45.974Z,20.08
2022-09-15T08:12:14.192Z,23.17
2022-09-15T08:14:42.588Z,14.90
2022-09-15T08:17:11.781Z,25.73
2022-09-15T08:19:40.244Z,25.38
2022-09-15T08:22:08.471Z,16.48
2022-09-15T08:24:38.613Z,19.80
2022-09-15T08:27:07.963Z,17.33
2022-09-15T08:29:36.019Z,13.00
2022-09-15T08:32:04.312Z,11.70
2022-09-15T08:34:32.494Z,12.32
2022-09-15T08:37:00.528Z,13.85
2022-09-15T08:39:28.733Z,12.07
2022-09-15T08:42:02.023Z,12.05
2022-09-15T08:44:43.190Z,10.65
2022-09-15T08:47:17.621Z,12.20
2022-09-15T08:49:59.610Z,12.00
2022-09-15T08:52:34.593Z,18.52
2022-09-15T08:55:12.580Z,10.18
2022-09-15T08:57:42.392Z,13.75
2022-09-15T09:00:16.416Z,13.77
2022-09-15T09:03:06.470Z,10.13
2022-09-15T09:05:57.033Z,9.52
2022-09-15T09:09:01.466Z,12.60
2022-09-15T09:11:47.274Z,12.77
2022-09-15T09:14:25.881Z,9.33
2022-09-15T09:17:16.494Z,13.85
2022-09-15T09:20:04.625Z,8.57
2022-09-15T09:22:38.979Z,7.93
2022-09-15T09:25:26.792Z,12.18
2022-09-15T09:27:58.099Z,6.82
2022-09-15T09:30:32.150Z,7.82
2022-09-15T09:33:26.552Z,8.35
2022-09-15T09:35:55.066Z,9.32
2022-09-15T09:38:29.431Z,6.97
2022-09-15T09:41:02.062Z,6.88
2022-09-15T09:43:32.133Z,4.95
2022-09-15T09:46:02.318Z,4.45
2022-09-15T09:48:32.257Z,4.65
2022-09-15T09:51:00.308Z,3.83
2022-09-15T09:53:32.142Z,4.57
2022-09-15T09:56:27.586Z,8.23
2022-09-15T09:58:56.530Z,5.38
2022-09-15T10:01:28.028Z,4.25
2022-09-15T10:04:18.234Z,3.22
2022-09-15T10:06:47.712Z,5.82
2022-09-15T10:09:19.511Z,3.70
2022-09-15T10:11:51.186Z,4.45
2022-09-15T10:14:26.632Z,4.53
2022-09-15T10:17:07.424Z,3.78
2022-09-15T10:19:47.764Z,3.95
2022-09-15T10:22:32.035Z,5.55
2022-09-15T10:25:02.063Z,5.30
2022-09-15T10:27:33.989Z,4.88
2022-09-15T10:30:19.820Z,4.00
2022-09-15T10:32:49.356Z,3.67
2022-09-15T10:35:20.127Z,2.85
2022-09-15T10:38:04.916Z,6.25
2022-09-15T10:40:48.160Z,3.58
2022-09-15T10:43:40.453Z,4.53
2022-09-15T10:46:18.236Z,6.20
2022-09-15T10:49:16.300Z,4.20
2022-09-15T10:51:59.604Z,3.90
2022-09-15T10:54:56.506Z,6.13
2022-09-15T10:57:46.438Z,3.53
2022-09-15T11:00:22.466Z,4.38
2022-09-15T11:03:33.345Z,4.55
2022-09-15T11:06:18.913Z,3.45
2022-09-15T11:09:15.936Z,5.82
2022-09-15T11:12:00.256Z,3.80
2022-09-15T11:14:50.382Z,3.47
2022-09-15T11:17:38.536Z,5.72
2022-09-15T11:20:43.112Z,6.47
2022-09-15T11:23:21.504Z,4.82
2022-09-15T11:25:56.997Z,3.20
2022-09-15T11:28:32.740Z,2.20
2022-09-15T11:31:08.099Z,3.03
2022-09-15T11:33:46.060Z,3.22
2022-09-15T11:36:18.737Z,3.88
2022-09-15T11:38:55.599Z,4.22
2022-09-15T11:41:34.440Z,3.78
2022-09-15T11:44:25.183Z,4.07
2022-09-15T11:47:29.249Z,3.78
2022-09-15T11:50:03.421Z,4.18
2022-09-15T11:52:51.391Z,2.78
2022-09-15T11:55:36.650Z,2.33
2022-09-15T11:58:22.526Z,4.38
2022-09-15T12:00:59.990Z,3.23
2022-09-15T12:03:38.944Z,4.20
2022-09-15T12:06:16.770Z,4.90
2022-09-15T12:08:55.337Z,1.42
2022-09-15T12:11:28.947Z,3.80
2022-09-15T12:13:57.473Z,3.75
2022-09-15T12:16:27.704Z,2.58
2022-09-15T12:19:01.393Z,2.20
2022-09-15T12:21:38.815Z,1.67
2022-09-15T12:24:18.465Z,2.92
2022-09-15T12:26:48.810Z,2.83
2022-09-15T12:29:41.919Z,3.08
2022-09-15T12:32:24.679Z,3.00
2022-09-15T12:35:03.602Z,2.95
2022-09-15T12:37:40.909Z,2.17
2022-09-15T12:40:34.295Z,3.63
2022-09-15T12:43:17.556Z,3.92
2022-09-15T12:45:57.581Z,1.50
2022-09-15T12:48:33.146Z,1.88
2022-09-15T12:51:05.540Z,3.50
2022-09-15T12:53:39.088Z,2.42
2022-09-15T12:56:22.100Z,0.90
2022-09-15T12:58:53.373Z,2.90
2022-09-15T13:01:49.817Z,2.28
2022-09-15T13:04:54.347Z,1.93
2022-09-15T13:07:57.846Z,3.33
2022-09-15T13:10:46.274Z,3.83
2022-09-15T13:13:33.396Z,3.17
2022-09-15T13:16:09.412Z,2.67
2022-09-15T13:18:38.672Z,2.15
2022-09-15T13:21:15.703Z,3.90
2022-09-15T13:23:49.347Z,1.42
2022-09-15T13:26:24.329Z,1.75
2022-09-15T13:28:56.414Z,3.03
2022-09-15T13:31:49.497Z,2.65
2022-09-15T13:35:09.202Z,1.92
2022-09-15T13:38:31.914Z,3.35
2022-09-15T13:41:45.618Z,1.20
2022-09-15T13:44:51.766Z,3.22
2022-09-15T13:47:38.424Z,8.30
2022-09-15T13:50:26.659Z,4.15
2022-09-15T13:53:29.440Z,4.35
2022-09-15T13:56:00.739Z,4.93
2022-09-15T14:01:24.307Z,2.20
2022-09-15T14:04:00.728Z,4.50
2022-09-15T14:06:36.260Z,3.03
2022-09-15T14:09:12.330Z,2.47
2022-09-15T14:11:42.525Z,3.33
2022-09-15T14:14:34.296Z,5.18
2022-09-15T14:17:02.704Z,3.50
2022-09-15T14:19:50.991Z,7.32
2022-09-15T14:22:29.360Z,1.63
2022-09-15T14:24:59.894Z,4.35
2022-09-15T14:27:31.654Z,1.60
2022-09-15T14:30:05.996Z,8.35
2022-09-15T14:32:41.124Z,2.53
2022-09-15T14:35:19.893Z,2.10
2022-09-15T14:37:50.865Z,2.22
2022-09-15T14:40:25.459Z,5.82
2022-09-15T14:42:53.832Z,2.35
2022-09-15T14:48:18.717Z,6.68
2022-09-15T14:51:02.705Z,3.85
2022-09-15T14:53:37.874Z,5.00
2022-09-15T14:56:12.951Z,5.63
2022-09-15T14:58:46.783Z,2.33
2022-09-15T15:01:24.354Z,3.53
2022-09-15T15:04:01.642Z,5.30
2022-09-15T15:06:38.178Z,3.13
2022-09-15T15:11:43.113Z,3.17
2022-09-15T15:14:14.572Z,3.92
2022-09-15T15:16:54.517Z,2.17
2022-09-15T15:19:34.606Z,3.17
2022-09-15T15:22:21.030Z,2.97
2022-09-15T15:24:52.773Z,2.88
2022-09-15T15:27:44.523Z,7.57
2022-09-15T15:30:44.186Z,1.70
2022-09-15T15:33:28.643Z,3.33
2022-09-15T15:36:06.770Z,4.78
2022-09-15T15:38:46.380Z,3.67
2022-09-15T15:41:24.088Z,4.25
2022-09-15T15:46:50.784Z,7.57
2022-09-15T15:49:22.404Z,3.42
2022-09-15T15:51:50.588Z,2.83
2022-09-15T15:54:20.227Z,3.25
2022-09-15T15:56:48.780Z,4.63
2022-09-15T15:59:17.711Z,4.70
2022-09-15T16:01:50.472Z,4.35
2022-09-15T16:04:18.914Z,3.08
2022-09-15T16:06:48.298Z,3.22
2022-09-15T16:09:20.860Z,2.85
2022-09-15T16:11:49.380Z,3.70
2022-09-15T16:14:17.738Z,5.53
2022-09-15T16:16:46.097Z,2.40
2022-09-15T16:19:14.654Z,5.82
2022-09-15T16:21:44.360Z,2.92
2022-09-15T16:24:16.238Z,3.17
2022-09-15T16:26:46.641Z,11.63
2022-09-15T16:29:16.058Z,5.82
2022-09-15T16:31:44.579Z,1.90
2022-09-15T16:34:17.998Z,4.50
2022-09-15T16:36:46.892Z,3.20
2022-09-15T16:39:15.290Z,5.82
2022-09-15T16:41:43.374Z,3.17
2022-09-15T16:44:20.662Z,4.53
2022-09-15T16:46:48.904Z,2.67
2022-09-15T16:49:17.588Z,9.60
2022-09-15T16:51:45.811Z,9.70
2022-09-15T16:54:17.876Z,3.40
2022-09-15T16:56:46.697Z,4.35
2022-09-15T16:59:16.473Z,3.22
2022-09-15T17:01:44.587Z,7.05
2022-09-15T17:04:17.110Z,4.72
2022-09-15T17:06:45.632Z,3.78
2022-09-15T17:09:13.931Z,6.05
2022-09-15T17:11:42.162Z,6.85
2022-09-15T17:14:16.411Z,5.20
2022-09-15T17:16:47.426Z,4.47
2022-09-15T17:19:15.954Z,4.97
2022-09-15T17:21:44.171Z,4.10
2022-09-15T17:24:12.803Z,6.88
2022-09-15T17:26:41.255Z,5.15
2022-09-15T17:29:14.620Z,4.10
2022-09-15T17:31:45.796Z,4.10
2022-09-15T17:34:15.284Z,4.82
2022-09-15T17:36:44.042Z,5.10
2022-09-15T17:39:12.332Z,5.35
2022-09-15T17:41:40.582Z,3.28
2022-09-15T17:44:12.078Z,7.82
2022-09-15T17:46:40.412Z,9.68
2022-09-15T17:49:10.180Z,8.82
2022-09-15T17:51:38.618Z,4.30
2022-09-15T17:54:07.589Z,3.45
2022-09-15T17:56:35.884Z,4.80
2022-09-15T17:59:04.013Z,4.35
2022-09-15T18:01:34.152Z,3.13
2022-09-15T18:04:11.363Z,6.85
2022-09-15T18:06:45.240Z,4.30
2022-09-15T18:09:23.666Z,5.00
2022-09-15T18:11:55.301Z,2.65
2022-09-15T18:14:28.149Z,9.15
2022-09-15T18:16:56.269Z,4.32
2022-09-15T18:19:24.610Z,7.85
2022-09-15T18:21:55.563Z,7.13
2022-09-15T18:24:23.664Z,7.53
2022-09-15T18:26:52.253Z,8.23
2022-09-15T18:29:20.380Z,7.72
2022-09-15T18:31:48.480Z,7.43
2022-09-15T18:34:16.555Z,3.78
2022-09-15T18:36:44.597Z,4.15
2022-09-15T18:39:14.085Z,8.75
2022-09-15T18:41:42.178Z,4.25
2022-09-15T18:44:10.401Z,4.75
2022-09-15T18:46:40.457Z,15.35
2022-09-15T18:49:09.415Z,6.05
2022-09-15T18:51:51.140Z,7.38
2022-09-15T18:54:23.894Z,7.53
2022-09-15T18:56:52.420Z,7.43
2022-09-15T18:59:20.528Z,7.97
2022-09-15T19:01:48.599Z,7.40
2022-09-15T19:04:16.702Z,4.82
2022-09-15T19:06:44.765Z,4.30
2022-09-15T19:09:12.922Z,6.70
2022-09-15T19:11:42.458Z,8.65
2022-09-15T19:14:10.644Z,5.60
2022-09-15T19:16:56.455Z,6.45
2022-09-15T19:19:25.736Z,7.18
2022-09-15T19:21:53.990Z,5.35
2022-09-15T19:24:22.244Z,7.38
2022-09-15T19:26:51.764Z,7.30
2022-09-15T19:29:19.822Z,6.20
2022-09-15T19:31:48.090Z,6.40
2022-09-15T19:34:16.221Z,5.97
2022-09-15T19:36:44.539Z,5.60
2022-09-15T19:39:14.868Z,10.40
2022-09-15T19:41:43.129Z,3.78
2022-09-15T19:44:12.608Z,7.07
2022-09-15T19:46:40.743Z,9.65
2022-09-15T19:49:08.861Z,7.68
2022-09-15T19:51:37.166Z,6.88
2022-09-15T19:54:06.369Z,4.97
2022-09-15T19:56:35.588Z,6.00
2022-09-15T19:59:07.138Z,11.60
2022-09-15T20:01:37.159Z,9.82
2022-09-15T20:04:05.627Z,5.00
2022-09-15T20:06:33.805Z,12.00
2022-09-15T20:09:02.110Z,6.20
2022-09-15T20:11:32.777Z,8.40
2022-09-15T20:14:01.643Z,5.65
2022-09-15T20:16:30.257Z,8.70
2022-09-15T20:19:00.119Z,3.75
2022-09-15T20:21:50.298Z,3.75
2022-09-15T20:24:20.233Z,4.80
2022-09-15T20:26:49.054Z,4.95
2022-09-15T20:29:18.149Z,7.18
2022-09-15T20:31:46.289Z,8.63
2022-09-15T20:34:16.097Z,4.93
2022-09-15T20:36:44.667Z,5.07
2022-09-15T20:39:16.014Z,3.45
2022-09-15T20:41:45.839Z,5.40
2022-09-15T20:44:14.963Z,8.48
2022-09-15T20:46:43.800Z,3.95
2022-09-15T20:49:12.257Z,6.15
2022-09-15T20:51:42.316Z,5.43
2022-09-15T20:54:11.937Z,7.03
2022-09-15T20:56:40.168Z,7.75
2022-09-15T20:59:10.702Z,5.18
2022-09-15T21:01:40.459Z,3.35
2022-09-15T21:04:10.695Z,7.15
2022-09-15T21:06:39.957Z,5.75
2022-09-15T21:09:09.545Z,3.53
2022-09-15T21:11:39.783Z,4.13
2022-09-15T21:14:07.960Z,9.32
2022-09-15T21:16:36.329Z,4.15
2022-09-15T21:19:05.271Z,10.13
2022-09-15T21:21:34.436Z,9.85
2022-09-15T21:24:06.191Z,4.15
2022-09-15T21:26:59.924Z,6.43
2022-09-15T21:29:29.354Z,8.43
2022-09-15T21:31:57.820Z,5.47
2022-09-15T21:34:26.321Z,5.20
2022-09-15T21:36:54.441Z,16.15
2022-09-15T21:39:22.890Z,7.07
2022-09-15T21:41:52.663Z,8.07
2022-09-15T21:44:20.800Z,12.85
2022-09-15T21:46:49.176Z,6.95
2022-09-15T21:49:18.445Z,9.23
2022-09-15T21:51:46.652Z,7.60
2022-09-15T21:54:14.871Z,15.30
2022-09-15T21:56:43.368Z,7.00
2022-09-15T21:59:13.604Z,10.20
2022-09-15T22:01:42.342Z,8.18
2022-09-15T22:04:11.149Z,9.85
2022-09-15T22:06:42.315Z,10.48
2022-09-15T22:09:15.620Z,9.90
2022-09-15T22:11:44.817Z,9.18
2022-09-15T22:14:15.009Z,9.55
2022-09-15T22:16:44.130Z,13.65
2022-09-15T22:19:13.239Z,9.63
2022-09-15T22:21:42.915Z,9.50
2022-09-15T22:24:13.746Z,11.82
2022-09-15T22:26:43.872Z,10.02
2022-09-15T22:29:13.935Z,7.30
2022-09-15T22:31:42.370Z,8.93
2022-09-15T22:34:11.124Z,9.00
2022-09-15T22:36:39.588Z,10.60
2022-09-15T22:39:08.233Z,10.25
2022-09-15T22:41:39.683Z,7.47
2022-09-15T22:44:17.245Z,10.32
2022-09-15T22:46:47.169Z,6.95
2022-09-15T22:49:15.369Z,8.77
2022-09-15T22:51:43.870Z,19.38
2022-09-15T22:54:12.002Z,12.18
2022-09-15T22:56:40.181Z,11.80
2022-09-15T22:59:08.353Z,10.50
2022-09-15T23:01:36.572Z,11.40
2022-09-15T23:04:06.320Z,14.32
2022-09-15T23:06:35.878Z,11.27
2022-09-15T23:09:08.269Z,8.88
2022-09-15T23:11:39.697Z,12.05
2022-09-15T23:14:12.821Z,13.00
2022-09-15T23:16:41.683Z,19.70
2022-09-15T23:19:14.388Z,8.88
2022-09-15T23:21:42.715Z,10.50
2022-09-15T23:24:12.475Z,6.10
2022-09-15T23:26:43.422Z,13.57
2022-09-15T23:29:11.755Z,9.25
2022-09-15T23:31:39.982Z,9.10
2022-09-15T23:34:08.277Z,10.10
2022-09-15T23:36:37.915Z,7.50
2022-09-15T23:39:06.080Z,15.35
2022-09-15T23:41:34.624Z,12.82
2022-09-15T23:44:03.105Z,10.25
2022-09-15T23:46:32.034Z,8.63
2022-09-15T23:49:00.604Z,5.60
2022-09-15T23:51:28.777Z,11.88
2022-09-15T23:53:58.412Z,11.05
2022-09-15T23:56:26.774Z,9.10
2022-09-15T23:58:55.453Z,6.43
